Time;durP1;ratioP1;P1;durP2;ratioP2;P2;SDS_P1;SDS_P2;PMS_P1;PMS_P2;Temp;Humidity;BMP_temperature;BMP_pressure;BME280_temperature;BME280_humidity;BME280_pressure;Samples;Min_cycle;Max_cycle;Signal;HPM_P1;HPM_P2
2020/12/22 00:00:17;;;;;;;12.40;10.97;;;;;;;8.15;77.00;97932.72;8337795;28;20200;-78
2020/12/22 00:04:19;;;;;;;12.47;10.87;;;;;;;8.21;76.74;97932.47;8340712;28;20201;-78
2020/12/22 00:08:20;;;;;;;13.17;10.90;;;;;;;8.20;76.38;97925.63;8339159;28;20556;-78
2020/12/22 00:12:23;;;;;;;12.40;11.10;;;;;;;8.24;76.56;97923.78;8336818;28;20240;-79
2020/12/22 00:16:32;;;;;;;12.93;11.67;;;;;;;8.30;76.63;97914.97;8338721;28;20200;-78
2020/12/22 00:20:33;;;;;;;11.37;10.27;;;;;;;8.32;76.49;97911.47;8341530;28;20569;-79
2020/12/22 00:24:35;;;;;;;13.30;11.90;;;;;;;8.36;76.27;97909.63;8341864;28;20215;-79
2020/12/22 00:28:38;;;;;;;13.50;11.60;;;;;;;8.28;76.85;97922.81;8342890;28;20239;-79
2020/12/22 00:32:39;;;;;;;12.47;11.17;;;;;;;8.36;76.67;97923.38;8344032;28;20555;-79
2020/12/22 00:36:41;;;;;;;13.60;12.30;;;;;;;8.29;76.71;97921.91;8342398;28;20201;-79
2020/12/22 00:40:43;;;;;;;12.20;11.10;;;;;;;8.36;77.03;97917.38;8343596;28;20207;-79
2020/12/22 00:44:45;;;;;;;14.43;13.00;;;;;;;8.32;76.62;97919.22;8343178;28;20207;-79
2020/12/22 00:48:47;;;;;;;13.40;11.30;;;;;;;8.34;76.85;97908.81;8341031;28;20691;-79
2020/12/22 00:52:49;;;;;;;12.20;11.00;;;;;;;8.38;76.89;97906.09;8339894;28;20223;-78
2020/12/22 00:56:51;;;;;;;12.47;11.17;;;;;;;8.37;77.07;97904.38;8336517;28;20243;-78
2020/12/22 01:00:54;;;;;;;12.67;11.47;;;;;;;8.37;77.21;97898.38;8336892;28;20235;-78
2020/12/22 01:04:56;;;;;;;12.93;11.67;;;;;;;8.39;77.27;97897.44;8336036;28;20239;-78
2020/12/22 01:08:57;;;;;;;13.40;12.10;;;;;;;8.35;77.47;97900.19;8336875;28;20700;-78
2020/12/22 01:12:59;;;;;;;13.63;12.33;;;;;;;8.22;77.78;97897.19;8336036;28;20657;-78
2020/12/22 01:17:02;;;;;;;14.20;12.73;;;;;;;8.30;77.47;97896.94;8335357;28;20200;-78
2020/12/22 01:21:03;;;;;;;12.77;11.40;;;;;;;8.30;77.43;97887.47;8336281;28;20521;-79
2020/12/22 01:25:05;;;;;;;13.47;12.17;;;;;;;8.36;77.06;97892.41;8338744;28;20204;-79
2020/12/22 01:29:07;;;;;;;13.23;11.93;;;;;;;8.39;77.42;97894.00;8335870;28;20239;-78
2020/12/22 01:33:09;;;;;;;13.73;12.33;;;;;;;8.39;77.36;97897.44;8335624;28;20675;-79
2020/12/22 01:37:12;;;;;;;14.93;13.43;;;;;;;8.48;76.96;97887.72;8334915;28;20235;-78
2020/12/22 01:41:14;;;;;;;14.37;13.00;;;;;;;8.48;77.03;97892.88;8334598;28;20201;-78
2020/12/22 01:45:16;;;;;;;14.20;12.70;;;;;;;8.53;76.68;97885.78;8334802;28;20213;-78
2020/12/22 01:49:26;;;;;;;13.97;12.67;;;;;;;8.44;77.25;97888.72;8333952;28;20224;-78
2020/12/22 01:53:27;;;;;;;15.93;14.43;;;;;;;8.45;77.27;97895.56;8334729;28;20215;-78
2020/12/22 01:57:29;;;;;;;15.13;13.60;;;;;;;8.43;77.55;97893.03;8334497;28;20208;-78
2020/12/22 02:01:32;;;;;;;13.50;12.20;;;;;;;8.52;77.58;97882.38;8334451;28;20656;-78
2020/12/22 02:05:37;;;;;;;15.07;13.67;;;;;;;8.49;77.79;97871.31;8333838;28;20662;-78
2020/12/22 02:09:40;;;;;;;14.90;13.50;;;;;;;8.57;77.47;97871.88;8333769;28;20255;-78
2020/12/22 02:13:42;;;;;;;13.70;12.40;;;;;;;8.68;77.18;97876.63;8334232;28;20699;-78
2020/12/22 02:17:45;;;;;;;13.37;12.07;;;;;;;8.68;77.00;97876.63;8333655;28;20625;-78
2020/12/22 02:21:48;;;;;;;13.73;12.43;;;;;;;8.74;77.11;97879.00;8334162;28;20632;-78
2020/12/22 02:25:50;;;;;;;13.43;12.10;;;;;;;8.77;77.07;97879.69;8333314;28;20204;-78
2020/12/22 02:29:52;;;;;;;12.57;11.37;;;;;;;8.85;76.53;97889.72;8333550;28;20225;-78
2020/12/22 02:33:54;;;;;;;13.07;11.77;;;;;;;8.81;77.27;97864.94;8332786;28;20206;-78
2020/12/22 02:37:57;;;;;;;12.97;11.67;;;;;;;8.80;77.79;97853.78;8332638;28;20204;-78
2020/12/22 02:41:58;;;;;;;12.67;11.10;;;;;;;8.81;77.88;97862.34;8333410;28;20605;-77
2020/12/22 02:46:00;;;;;;;13.07;11.77;;;;;;;8.89;78.09;97864.63;8333139;28;20208;-78
2020/12/22 02:50:02;;;;;;;12.20;10.90;;;;;;;8.91;77.82;97855.94;8333005;28;20274;-78
2020/12/22 02:54:05;;;;;;;12.50;11.30;;;;;;;8.94;78.26;97858.38;8332876;28;20227;-78
2020/12/22 02:58:07;;;;;;;13.20;11.93;;;;;;;8.87;79.14;97848.34;8333542;28;20215;-78
2020/12/22 03:02:09;;;;;;;11.47;10.40;;;;;;;8.98;78.74;97828.09;8332981;28;20212;-78
2020/12/22 03:06:10;;;;;;;10.87;9.87;;;;;;;9.01;78.69;97835.75;8334066;28;20205;-78
2020/12/22 03:10:14;;;;;;;10.60;9.60;;;;;;;9.08;78.68;97833.75;8332759;28;20235;-78
2020/12/22 03:14:16;;;;;;;10.37;9.43;;;;;;;8.99;79.45;97829.81;8332163;28;20240;-78
2020/12/22 03:18:18;;;;;;;9.63;8.73;;;;;;;9.09;79.14;97820.78;8336881;28;20208;-78
2020/12/22 03:22:20;;;;;;;8.73;7.93;;;;;;;9.01;79.88;97820.25;8338903;28;20269;-78
2020/12/22 03:26:23;;;;;;;8.77;8.03;;;;;;;9.07;79.37;97809.66;8338473;28;20205;-78
2020/12/22 03:30:24;;;;;;;8.60;7.80;;;;;;;9.17;79.47;97810.94;8338691;28;20264;-79
2020/12/22 03:34:26;;;;;;;8.33;7.53;;;;;;;9.26;78.94;97808.91;8339628;28;20223;-78
2020/12/22 03:38:28;;;;;;;8.53;7.73;;;;;;;9.25;79.43;97808.06;8338220;28;20204;-78
2020/12/22 03:42:31;;;;;;;6.97;6.27;;;;;;;9.37;78.94;97814.47;8338226;28;20208;-78
2020/12/22 03:46:32;;;;;;;6.93;6.33;;;;;;;9.44;78.91;97815.88;8338248;28;20204;-78
2020/12/22 03:50:34;;;;;;;6.60;6.00;;;;;;;9.44;79.22;97807.28;8336525;28;20259;-78
2020/12/22 03:54:36;;;;;;;6.40;5.80;;;;;;;9.43;79.22;97818.56;8337494;28;20204;-78
2020/12/22 03:58:38;;;;;;;6.57;5.57;;;;;;;9.50;78.92;97833.75;8337980;28;20212;-78
2020/12/22 04:02:40;;;;;;;6.60;6.00;;;;;;;9.51;79.05;97826.81;8337740;28;20207;-78
2020/12/22 04:06:42;;;;;;;5.77;5.27;;;;;;;9.57;78.75;97827.38;8338020;28;20200;-78
2020/12/22 04:10:44;;;;;;;5.10;4.60;;;;;;;9.65;78.65;97824.47;8337823;28;20235;-78
2020/12/22 04:14:47;;;;;;;5.17;4.77;;;;;;;9.64;79.20;97815.03;8337340;28;20232;-78
2020/12/22 04:18:49;;;;;;;5.00;4.60;;;;;;;9.61;79.31;97812.59;8337251;28;20295;-78
2020/12/22 04:22:50;;;;;;;4.73;4.30;;;;;;;9.69;79.81;97804.50;8337354;28;20342;-78
2020/12/22 04:26:52;;;;;;;4.57;4.17;;;;;;;9.71;79.57;97819.06;8336523;28;20289;-78
2020/12/22 04:30:55;;;;;;;4.47;4.07;;;;;;;9.68;79.93;97810.59;8336790;28;20725;-78
2020/12/22 04:34:58;;;;;;;4.73;3.53;;;;;;;9.80;79.32;97812.63;8335696;28;20208;-77
2020/12/22 04:39:00;;;;;;;3.60;3.30;;;;;;;9.75;80.52;97799.06;8336380;28;20294;-78
2020/12/22 04:43:03;;;;;;;5.17;3.20;;;;;;;9.77;80.46;97813.59;8337226;28;20204;-78
2020/12/22 04:47:07;;;;;;;4.97;3.00;;;;;;;9.84;79.83;97815.91;8335876;28;20205;-78
2020/12/22 04:51:10;;;;;;;3.57;2.93;;;;;;;9.89;79.80;97821.75;8336108;28;20291;-78
2020/12/22 04:55:31;;;;;;;2.83;2.57;;;;;;;9.91;79.79;97836.28;8336498;28;20676;-78
2020/12/22 04:59:37;;;;;;;2.93;2.63;;;;;;;9.97;79.72;97827.41;8336396;28;20220;-78
2020/12/22 05:03:39;;;;;;;3.43;2.70;;;;;;;9.79;80.76;97832.47;8336205;28;20711;-78
2020/12/22 05:07:41;;;;;;;3.17;2.80;;;;;;;9.94;80.49;97835.31;8335731;28;20231;-78
2020/12/22 05:11:43;;;;;;;2.70;2.37;;;;;;;9.97;80.56;97824.81;8336022;28;20244;-79
2020/12/22 05:15:47;;;;;;;3.20;2.03;;;;;;;9.95;80.81;97835.22;8339973;28;20205;-79
2020/12/22 05:19:51;;;;;;;3.53;2.40;;;;;;;10.01;80.54;97828.13;8340245;28;20232;-79
2020/12/22 05:23:53;;;;;;;2.33;2.13;;;;;;;10.01;80.55;97821.19;8339752;28;20216;-79
2020/12/22 05:27:55;;;;;;;2.30;2.10;;;;;;;10.09;80.28;97823.44;8337351;28;20263;-79
2020/12/22 05:31:57;;;;;;;2.40;1.50;;;;;;;10.07;80.92;97820.94;8337653;28;20205;-79
2020/12/22 05:36:01;;;;;;;2.00;1.20;;;;;;;10.15;80.75;97803.31;8335868;28;20641;-79
2020/12/22 05:40:07;;;;;;;1.93;1.03;;;;;;;10.18;80.77;97810.09;8335429;28;20216;-78
2020/12/22 05:44:09;;;;;;;1.13;1.00;;;;;;;10.16;80.91;97812.75;8334217;28;20664;-78
2020/12/22 05:48:14;;;;;;;4.00;0.67;;;;;;;10.22;81.19;97821.97;8334577;28;20232;-78
2020/12/22 05:52:17;;;;;;;0.60;0.60;;;;;;;10.21;81.58;97809.97;8334355;28;20204;-78
2020/12/22 05:56:21;;;;;;;0.77;0.60;;;;;;;10.31;81.10;97813.81;8334115;28;20204;-78
2020/12/22 06:00:23;;;;;;;1.07;0.70;;;;;;;10.28;81.36;97803.59;8334120;28;20660;-78
2020/12/22 06:04:26;;;;;;;0.67;0.60;;;;;;;10.35;81.31;97817.13;8333376;28;20211;-78
2020/12/22 06:08:29;;;;;;;0.40;0.40;;;;;;;10.39;81.63;97825.59;8333077;28;20220;-78
2020/12/22 06:12:38;;;;;;;0.60;0.40;;;;;;;10.40;81.40;97824.69;8335533;28;20672;-78
2020/12/22 06:16:40;;;;;;;0.93;0.50;;;;;;;10.40;81.28;97812.59;8333854;28;20528;-78
2020/12/22 06:20:42;;;;;;;0.77;0.60;;;;;;;10.37;81.65;97815.28;8333458;28;20200;-78
2020/12/22 06:24:46;;;;;;;0.50;0.47;;;;;;;10.46;81.38;97817.47;8333489;28;20242;-78
2020/12/22 06:28:47;;;;;;;0.77;0.40;;;;;;;10.47;81.51;97820.88;8332995;28;20239;-78
2020/12/22 06:32:50;;;;;;;0.40;0.40;;;;;;;10.42;81.81;97820.28;8330008;28;20200;-78
2020/12/22 06:36:58;;;;;;;1.80;0.67;;;;;;;10.50;81.25;97833.69;8332870;28;20197;-77
2020/12/22 06:41:01;;;;;;;0.70;0.50;;;;;;;10.48;81.58;97831.19;8332515;28;20216;-78
2020/12/22 06:45:27;;;;;;;0.90;0.40;;;;;;;10.63;80.90;97823.63;8333435;28;20204;-78
2020/12/22 06:49:53;;;;;;;0.73;0.40;;;;;;;10.69;80.31;97831.09;8333353;28;20586;-78
2020/12/22 06:53:56;;;;;;;0.50;0.50;;;;;;;10.65;80.88;97833.00;8332529;28;20675;-78
2020/12/22 06:57:59;;;;;;;0.53;0.53;;;;;;;10.67;80.55;97832.94;8332990;28;20231;-78
2020/12/22 07:02:01;;;;;;;0.57;0.47;;;;;;;10.78;80.09;97840.19;8332325;28;20656;-78
2020/12/22 07:06:02;;;;;;;3.67;0.50;;;;;;;10.75;80.05;97846.34;8337923;28;20197;-79
2020/12/22 07:10:06;;;;;;;0.50;0.40;;;;;;;10.86;79.75;97835.47;8338562;28;20239;-79
2020/12/22 07:14:09;;;;;;;0.60;0.60;;;;;;;10.88;79.77;97844.03;8333538;28;20228;-79
2020/12/22 07:18:11;;;;;;;2.00;0.50;;;;;;;10.78;79.89;97847.97;8339218;28;20211;-79
2020/12/22 07:22:14;;;;;;;1.10;0.50;;;;;;;10.87;79.55;97844.91;8339909;28;20211;-79
2020/12/22 07:26:16;;;;;;;0.70;0.40;;;;;;;10.93;79.53;97855.84;8334169;28;20213;-79
2020/12/22 07:30:19;;;;;;;0.50;0.50;;;;;;;10.97;79.55;97856.53;8332742;28;20233;-79
2020/12/22 07:34:21;;;;;;;1.00;0.70;;;;;;;10.84;79.57;97858.03;8332835;28;20517;-77
2020/12/22 07:38:23;;;;;;;1.40;0.40;;;;;;;10.96;79.91;97857.44;8332433;28;20216;-78
2020/12/22 07:42:24;;;;;;;2.00;0.50;;;;;;;10.99;79.33;97862.50;8332393;28;20230;-78
2020/12/22 07:46:27;;;;;;;0.60;0.40;;;;;;;11.05;79.58;97857.00;8332577;28;20209;-78
2020/12/22 07:50:29;;;;;;;2.83;0.70;;;;;;;10.93;80.29;97857.59;8331125;28;20224;-78
2020/12/22 07:54:31;;;;;;;2.17;0.70;;;;;;;11.03;80.32;97865.78;8331407;28;20636;-78
2020/12/22 07:58:33;;;;;;;1.17;0.40;;;;;;;11.01;80.48;97860.66;8330869;28;20197;-78
2020/12/22 08:02:35;;;;;;;4.40;0.50;;;;;;;11.00;80.66;97863.31;8333920;28;20239;-78
2020/12/22 08:06:37;;;;;;;1.97;0.67;;;;;;;11.01;80.52;97870.19;8337180;28;20196;-78
2020/12/22 08:10:39;;;;;;;0.70;0.50;;;;;;;11.02;80.64;97864.91;8337428;28;20228;-79
2020/12/22 08:14:42;;;;;;;0.83;0.60;;;;;;;10.99;80.73;97872.84;8338123;28;20707;-78
2020/12/22 08:18:45;;;;;;;0.63;0.60;;;;;;;10.99;80.66;97877.22;8338274;28;20208;-78
2020/12/22 08:22:47;;;;;;;0.83;0.60;;;;;;;11.12;80.36;97871.34;8337762;28;20246;-78
2020/12/22 08:26:50;;;;;;;0.50;0.50;;;;;;;11.09;80.84;97878.44;8336970;28;20653;-78
2020/12/22 08:30:53;;;;;;;1.13;0.93;;;;;;;11.05;80.98;97882.09;8336606;28;20691;-78
2020/12/22 08:34:56;;;;;;;0.70;0.70;;;;;;;11.08;81.00;97885.38;8336511;28;20236;-77
2020/12/22 08:39:18;;;;;;;1.67;0.57;;;;;;;11.10;81.03;97887.88;8336776;28;20210;-78
2020/12/22 08:43:23;;;;;;;2.47;0.90;;;;;;;11.34;81.30;97881.50;8314829;28;20196;-78
2020/12/22 08:47:25;;;;;;;0.67;0.67;;;;;;;11.51;80.70;97887.63;8337634;28;20193;-78
2020/12/22 08:51:28;;;;;;;1.20;0.90;;;;;;;11.56;79.87;97901.22;8331341;28;20683;-77
2020/12/22 08:55:29;;;;;;;0.50;0.50;;;;;;;11.55;79.66;97905.53;8334159;28;20200;-77
2020/12/22 08:59:31;;;;;;;1.13;0.70;;;;;;;11.51;79.70;97908.38;8331345;28;20243;-78
2020/12/22 09:03:33;;;;;;;0.50;0.50;;;;;;;11.42;80.04;97912.25;8337512;28;20197;-77
2020/12/22 09:07:35;;;;;;;1.77;0.30;;;;;;;11.54;79.71;97916.84;8337019;28;20641;-77
2020/12/22 09:11:38;;;;;;;1.27;0.30;;;;;;;11.57;79.92;97920.19;8338615;28;20244;-77
2020/12/22 09:15:52;;;;;;;0.83;0.40;;;;;;;11.68;79.61;97912.75;8336991;28;20204;-77
2020/12/22 09:19:54;;;;;;;0.40;0.40;;;;;;;11.68;79.65;97920.53;8336303;28;20215;-77
2020/12/22 09:23:56;;;;;;;1.70;0.50;;;;;;;11.70;79.33;97914.31;8337082;28;20200;-78
2020/12/22 09:27:58;;;;;;;0.80;0.80;;;;;;;11.69;79.60;97907.47;8336313;28;20204;-77
2020/12/22 09:32:00;;;;;;;0.70;0.40;;;;;;;11.68;79.99;97905.78;8336724;28;20211;-78
2020/12/22 09:36:02;;;;;;;0.75;0.57;;;;;;;11.97;78.60;97913.88;8336629;28;20427;-79
2020/12/22 09:40:05;;;;;;;0.50;0.40;;;;;;;11.76;79.55;97914.94;8335924;28;20284;-77
2020/12/22 09:44:07;;;;;;;2.13;1.40;;;;;;;11.80;79.48;97919.91;8336445;28;20227;-78
2020/12/22 09:48:09;;;;;;;14.90;11.20;;;;;;;11.69;80.21;97923.03;8335924;28;20228;-77
2020/12/22 09:52:11;;;;;;;8.20;5.40;;;;;;;11.67;80.31;97924.88;8336348;28;20231;-78
2020/12/22 09:56:13;;;;;;;5.77;5.10;;;;;;;11.77;80.71;97920.06;8336497;28;20526;-78
2020/12/22 10:00:15;;;;;;;5.13;1.80;;;;;;;11.81;80.52;97923.34;8337739;28;20204;-77
2020/12/22 10:04:17;;;;;;;1.37;0.60;;;;;;;11.68;81.36;97923.13;8337065;28;20483;-79
2020/12/22 10:08:19;;;;;;;0.50;0.40;;;;;;;11.70;81.19;97910.91;8336384;28;20224;-79
2020/12/22 10:12:22;;;;;;;1.00;0.50;;;;;;;11.71;81.01;97907.41;8337157;28;20240;-79
2020/12/22 10:16:24;;;;;;;0.73;0.60;;;;;;;11.66;80.81;97918.00;8340926;28;20231;-78
2020/12/22 10:20:25;;;;;;;2.00;0.80;;;;;;;11.79;80.40;97912.22;8338189;28;20203;-78
2020/12/22 10:24:27;;;;;;;1.27;0.80;;;;;;;11.90;80.32;97915.97;8338832;28;20245;-78
2020/12/22 10:28:30;;;;;;;1.10;0.80;;;;;;;11.90;80.07;97926.34;8339408;28;20232;-77
2020/12/22 10:32:32;;;;;;;1.23;0.83;;;;;;;12.03;80.17;97933.50;8338527;28;20204;-78
2020/12/22 10:36:34;;;;;;;0.60;0.50;;;;;;;12.10;79.47;97919.31;8337049;28;20668;-78
2020/12/22 10:40:35;;;;;;;2.10;0.57;;;;;;;12.25;79.12;97922.88;8338432;28;20204;-78
2020/12/22 10:44:38;;;;;;;0.80;0.30;;;;;;;12.27;79.33;97942.63;8337332;28;20656;-79
2020/12/22 10:48:40;;;;;;;0.47;0.37;;;;;;;12.37;79.05;97927.41;8336127;28;20220;-79
2020/12/22 10:52:43;;;;;;;0.97;0.50;;;;;;;12.31;79.07;97923.38;8334952;28;20613;-78
2020/12/22 10:56:45;;;;;;;1.00;0.40;;;;;;;12.19;78.81;97929.22;8335072;28;20208;-79
2020/12/22 11:00:48;;;;;;;0.50;0.30;;;;;;;12.25;78.81;97934.09;8342673;28;20629;-79
2020/12/22 11:04:53;;;;;;;0.30;0.30;;;;;;;12.20;79.18;97930.88;8343766;28;20208;-79
2020/12/22 11:08:55;;;;;;;0.57;0.30;;;;;;;12.26;78.77;97934.91;8341187;28;20573;-79
2020/12/22 11:12:57;;;;;;;0.27;0.27;;;;;;;12.28;78.66;97938.28;8340086;28;20672;-78
2020/12/22 11:17:00;;;;;;;0.30;0.30;;;;;;;12.24;78.84;97936.75;8342115;28;20208;-78
2020/12/22 11:21:02;;;;;;;0.30;0.30;;;;;;;12.34;78.68;97930.19;8344705;28;20205;-78
2020/12/22 11:25:18;;;;;;;0.43;0.40;;;;;;;12.59;77.47;97936.69;8344490;28;20431;-78
2020/12/22 11:29:20;;;;;;;0.40;0.30;;;;;;;12.31;78.89;97944.16;8327830;28;20584;-79
2020/12/22 11:33:22;;;;;;;8.47;1.90;;;;;;;12.70;80.12;97945.59;8305615;28;20205;-79
2020/12/22 11:37:26;;;;;;;0.30;0.30;;;;;;;12.66;78.29;97948.41;8340888;28;20211;-79
2020/12/22 11:41:29;;;;;;;0.77;0.23;;;;;;;12.59;77.63;97952.28;8345066;28;20208;-78
2020/12/22 11:45:31;;;;;;;0.87;0.50;;;;;;;12.70;77.53;97947.34;8344559;28;20818;-79
2020/12/22 11:49:34;;;;;;;0.60;0.60;;;;;;;12.59;77.53;97944.50;8343745;28;20633;-79
2020/12/22 11:53:35;;;;;;;4.00;3.00;;;;;;;12.56;77.42;97947.25;8341394;28;20201;-77
2020/12/22 11:57:37;;;;;;;1.47;1.30;;;;;;;12.55;77.80;97942.97;8340744;28;20196;-78
2020/12/22 12:01:39;;;;;;;1.40;1.30;;;;;;;12.53;77.89;97943.06;8340049;28;20640;-78
2020/12/22 12:05:42;;;;;;;3.30;2.20;;;;;;;12.69;77.23;97935.28;8338453;28;20431;-76
2020/12/22 12:09:44;;;;;;;2.17;1.97;;;;;;;12.52;78.06;97943.97;8339969;28;20232;-77
2020/12/22 12:13:46;;;;;;;1.20;0.50;;;;;;;12.91;76.62;97953.16;8339927;28;20467;-77
2020/12/22 12:17:48;;;;;;;4.30;0.80;;;;;;;12.59;77.39;97947.91;8339789;28;20207;-77
2020/12/22 12:21:50;;;;;;;1.80;0.67;;;;;;;12.54;77.93;97959.47;8338241;28;20200;-77
2020/12/22 12:25:52;;;;;;;0.80;0.60;;;;;;;12.49;77.92;97955.34;8339158;28;20196;-77
2020/12/22 12:29:54;;;;;;;4.83;0.80;;;;;;;12.41;78.20;97946.28;8337408;28;20680;-77
2020/12/22 12:33:56;;;;;;;1.43;1.23;;;;;;;12.48;78.09;97947.63;8331988;28;20235;-77
2020/12/22 12:37:59;;;;;;;1.57;0.90;;;;;;;12.49;78.21;97938.94;8337230;28;20204;-77
2020/12/22 12:42:00;;;;;;;1.10;1.00;;;;;;;12.51;78.04;97956.13;8336732;28;20208;-77
2020/12/22 12:46:04;;;;;;;0.87;0.50;;;;;;;12.50;77.86;97954.41;8336646;28;20219;-77
2020/12/22 12:50:06;;;;;;;1.33;0.70;;;;;;;12.55;77.87;97953.38;8336779;28;20239;-77
2020/12/22 12:54:09;;;;;;;2.20;0.40;;;;;;;12.46;77.97;97949.47;8336019;28;20204;-77
2020/12/22 12:58:10;;;;;;;1.67;0.60;;;;;;;12.45;78.02;97961.63;8336038;28;20203;-76
2020/12/22 13:02:12;;;;;;;1.60;0.63;;;;;;;12.43;78.23;97958.28;8335945;28;20200;-76
2020/12/22 13:06:14;;;;;;;1.30;0.50;;;;;;;12.49;78.16;97962.31;8336376;28;20644;-76
2020/12/22 13:10:16;;;;;;;1.07;0.67;;;;;;;12.50;77.92;97963.97;8335828;28;20216;-76
2020/12/22 13:14:18;;;;;;;0.80;0.50;;;;;;;12.41;78.32;97974.84;8335598;28;20240;-76
2020/12/22 13:18:20;;;;;;;1.10;0.60;;;;;;;12.52;77.77;97967.34;8335383;28;20212;-77
2020/12/22 13:22:22;;;;;;;1.90;0.40;;;;;;;12.50;77.97;97966.56;8334906;28;20307;-77
2020/12/22 13:26:24;;;;;;;1.13;0.47;;;;;;;12.42;78.33;97969.56;8334801;28;20201;-76
2020/12/22 13:30:26;;;;;;;0.80;0.60;;;;;;;12.46;78.25;97959.88;8335466;28;20227;-77
2020/12/22 13:34:28;;;;;;;1.00;0.50;;;;;;;12.42;78.45;97971.34;8334568;28;20204;-76
2020/12/22 13:38:49;;;;;;;3.23;0.67;;;;;;;12.47;78.22;97974.53;8335154;28;20208;-77
2020/12/22 13:42:52;;;;;;;1.07;0.60;;;;;;;12.46;78.66;97972.84;8335075;28;20201;-77
2020/12/22 13:46:54;;;;;;;1.93;1.53;;;;;;;12.48;78.57;97977.03;8334889;28;20675;-76
2020/12/22 13:50:55;;;;;;;0.80;0.70;;;;;;;12.45;78.86;97968.56;8333874;28;20232;-76
2020/12/22 13:54:57;;;;;;;0.80;0.60;;;;;;;12.90;76.61;97977.47;8334033;28;20426;-77
2020/12/22 13:58:59;;;;;;;0.77;0.60;;;;;;;12.54;78.04;97990.63;8337124;28;20208;-76
2020/12/22 14:03:01;;;;;;;1.80;1.00;;;;;;;12.62;77.89;97981.53;8335168;28;20205;-76
2020/12/22 14:07:03;;;;;;;1.30;0.90;;;;;;;12.64;77.71;97982.28;8335262;28;20208;-78
2020/12/22 14:11:05;;;;;;;2.63;1.30;;;;;;;12.52;78.40;97982.91;8335377;28;20235;-77
2020/12/22 14:15:09;;;;;;;1.97;1.07;;;;;;;12.48;78.66;97984.00;8337448;28;20224;-76
2020/12/22 14:19:11;;;;;;;2.47;1.70;;;;;;;12.56;78.26;97991.41;8338867;28;20215;-77
2020/12/22 14:23:12;;;;;;;1.17;0.80;;;;;;;12.50;78.57;97993.38;8338890;28;20204;-77
2020/12/22 14:27:14;;;;;;;1.10;0.87;;;;;;;12.48;78.78;98004.78;8338004;28;20204;-78
2020/12/22 14:31:17;;;;;;;1.33;1.10;;;;;;;12.45;79.17;98007.53;8337544;28;20221;-77
2020/12/22 14:35:18;;;;;;;1.50;1.40;;;;;;;12.51;79.11;98010.66;8335244;28;20208;-77
2020/12/22 14:39:20;;;;;;;2.90;1.43;;;;;;;12.46;78.87;98004.03;8332226;28;20567;-77
2020/12/22 14:43:22;;;;;;;1.20;1.10;;;;;;;12.51;78.65;98007.22;8332346;28;20205;-77
2020/12/22 14:47:25;;;;;;;1.07;1.00;;;;;;;12.53;78.54;98010.59;8332979;28;20215;-77
2020/12/22 14:51:26;;;;;;;1.40;1.30;;;;;;;12.56;78.41;98013.00;8333907;28;20235;-77
2020/12/22 14:55:28;;;;;;;2.13;1.43;;;;;;;12.52;78.27;98014.09;8332076;28;20211;-76
2020/12/22 14:59:30;;;;;;;1.60;1.50;;;;;;;12.44;78.86;98017.09;8331922;28;20224;-77
2020/12/22 15:03:34;;;;;;;1.70;1.00;;;;;;;12.44;79.00;98016.25;8332369;28;20213;-77
2020/12/22 15:07:35;;;;;;;1.20;1.10;;;;;;;12.48;79.13;98017.78;8332487;28;20248;-77
2020/12/22 15:11:37;;;;;;;5.63;1.30;;;;;;;12.47;79.05;98022.13;8333019;28;20911;-77
2020/12/22 15:15:39;;;;;;;1.67;1.20;;;;;;;12.54;78.82;98029.59;8338702;28;20672;-77
2020/12/22 15:19:43;;;;;;;2.13;1.47;;;;;;;12.52;79.02;98021.88;8338448;28;20657;-77
2020/12/22 15:23:45;;;;;;;2.70;1.20;;;;;;;12.50;79.15;98031.50;8338066;28;20216;-77
2020/12/22 15:27:46;;;;;;;2.07;1.73;;;;;;;12.53;78.93;98033.97;8340661;28;20213;-77
2020/12/22 15:31:53;;;;;;;1.33;1.00;;;;;;;12.57;78.83;98038.09;8339199;28;20718;-78
2020/12/22 15:35:55;;;;;;;2.67;1.70;;;;;;;12.55;78.84;98041.69;8338181;28;20575;-78
2020/12/22 15:39:57;;;;;;;1.40;1.20;;;;;;;12.59;78.80;98053.59;8337851;28;20209;-78
2020/12/22 15:43:59;;;;;;;1.30;1.00;;;;;;;12.53;78.92;98049.56;8338237;28;20207;-78
2020/12/22 15:48:01;;;;;;;1.83;1.00;;;;;;;12.62;78.89;98056.88;8337618;28;20204;-78
2020/12/22 15:52:03;;;;;;;1.33;0.90;;;;;;;12.61;78.63;98044.78;8339852;28;20560;-78
2020/12/22 15:56:05;;;;;;;1.80;0.77;;;;;;;12.61;79.06;98042.19;8337208;28;20209;-78
2020/12/22 16:00:07;;;;;;;0.83;0.80;;;;;;;12.57;79.56;98048.47;8337595;28;20204;-78
2020/12/22 16:04:09;;;;;;;1.17;0.90;;;;;;;12.61;79.34;98049.16;8337051;28;20204;-78
2020/12/22 16:08:12;;;;;;;1.23;0.90;;;;;;;12.63;79.10;98042.97;8337631;28;20204;-78
2020/12/22 16:12:15;;;;;;;1.80;0.80;;;;;;;12.59;79.37;98035.41;8335888;28;20244;-78
2020/12/22 16:16:18;;;;;;;1.80;1.17;;;;;;;12.63;79.18;98042.97;8337036;28;20196;-78
2020/12/22 16:20:20;;;;;;;2.80;0.70;;;;;;;12.63;79.37;98029.97;8336852;28;20209;-78
2020/12/22 16:24:23;;;;;;;1.00;0.90;;;;;;;12.70;79.11;98033.09;8335639;28;20207;-79
2020/12/22 16:28:24;;;;;;;1.23;0.90;;;;;;;12.69;78.87;98036.59;8336620;28;20223;-78
2020/12/22 16:32:26;;;;;;;1.30;1.10;;;;;;;12.65;78.87;98030.72;8337292;28;20582;-78
2020/12/22 16:36:28;;;;;;;1.40;0.93;;;;;;;13.10;77.11;98038.81;8341602;28;20419;-78
2020/12/22 16:40:31;;;;;;;1.73;1.10;;;;;;;12.73;78.91;98042.50;8337902;28;20772;-78
2020/12/22 16:44:33;;;;;;;1.23;1.10;;;;;;;12.74;78.71;98042.41;8336333;28;20207;-78
2020/12/22 16:48:35;;;;;;;2.07;1.30;;;;;;;12.70;78.56;98033.94;8336956;28;20200;-77
2020/12/22 16:52:37;;;;;;;1.53;1.30;;;;;;;12.62;79.42;98025.72;8336945;28;20315;-77
2020/12/22 16:56:40;;;;;;;1.67;1.30;;;;;;;12.66;78.95;98023.75;8339015;28;20201;-79
2020/12/22 17:00:42;;;;;;;2.97;2.67;;;;;;;12.63;78.98;98027.38;8338110;28;20204;-78
2020/12/22 17:04:45;;;;;;;3.00;2.33;;;;;;;12.66;79.06;98026.34;8342129;28;20652;-79
2020/12/22 17:08:46;;;;;;;5.37;3.20;;;;;;;12.67;78.94;98021.09;8341836;28;20629;-79
2020/12/22 17:12:50;;;;;;;6.53;2.57;;;;;;;12.57;79.42;98022.50;8342274;28;20228;-79
2020/12/22 17:16:54;;;;;;;2.83;2.40;;;;;;;12.61;79.50;98023.19;8346107;28;20201;-80
2020/12/22 17:20:56;;;;;;;4.90;2.23;;;;;;;12.61;79.41;98016.22;8341607;28;20225;-78
2020/12/22 17:24:58;;;;;;;4.33;3.50;;;;;;;12.54;80.14;98020.03;8336787;28;20216;-79
2020/12/22 17:29:01;;;;;;;2.73;2.43;;;;;;;12.58;79.75;98016.38;8334787;28;20216;-78
2020/12/22 17:33:03;;;;;;;4.80;2.40;;;;;;;12.59;79.48;98010.25;8335597;28;20220;-78
2020/12/22 17:37:04;;;;;;;3.87;2.20;;;;;;;12.57;79.79;98017.31;8334045;28;20644;-78
2020/12/22 17:41:06;;;;;;;2.50;1.80;;;;;;;12.57;79.94;98022.50;8336274;28;20208;-78
2020/12/22 17:45:09;;;;;;;3.53;2.30;;;;;;;12.60;79.63;98029.28;8334431;28;20291;-78
2020/12/22 17:49:10;;;;;;;2.80;2.45;;;;;;;12.94;78.17;98023.16;8334474;28;20434;-78
2020/12/22 17:53:12;;;;;;;2.30;2.10;;;;;;;12.64;79.85;98026.47;8335864;28;20683;-77
2020/12/22 17:57:14;;;;;;;1.77;1.67;;;;;;;12.62;80.05;98020.50;8335838;28;20309;-78
2020/12/22 18:01:32;;;;;;;5.00;3.60;;;;;;;12.65;79.63;98022.09;8335392;28;20605;-78
2020/12/22 18:05:33;;;;;;;3.93;3.43;;;;;;;12.69;79.52;98023.63;8334712;28;20541;-78
2020/12/22 18:09:35;;;;;;;4.90;3.43;;;;;;;12.70;79.55;98026.13;8335061;28;20695;-78
2020/12/22 18:13:37;;;;;;;5.07;3.47;;;;;;;12.69;79.29;98023.63;8334053;28;20236;-78
2020/12/22 18:17:40;;;;;;;3.63;2.70;;;;;;;12.70;79.61;98020.13;8334834;28;20204;-80
2020/12/22 18:21:41;;;;;;;3.73;3.30;;;;;;;12.65;79.59;98022.94;8337756;28;20577;-78
2020/12/22 18:25:44;;;;;;;7.80;4.00;;;;;;;12.75;79.24;98019.84;8339993;28;20196;-79
2020/12/22 18:29:46;;;;;;;6.47;3.30;;;;;;;12.70;79.64;98017.50;8348653;28;20938;-79
2020/12/22 18:33:48;;;;;;;2.70;2.50;;;;;;;12.70;79.44;98018.34;8343839;28;20228;-79
2020/12/22 18:37:50;;;;;;;3.50;2.47;;;;;;;12.71;79.43;98022.59;8336177;28;20204;-79
2020/12/22 18:41:52;;;;;;;3.10;2.77;;;;;;;12.70;79.51;98020.94;8335951;28;20534;-79
2020/12/22 18:45:53;;;;;;;3.27;2.70;;;;;;;12.69;79.46;98019.25;8334684;28;20200;-78
2020/12/22 18:49:57;;;;;;;2.60;2.23;;;;;;;12.77;79.57;98013.66;8338445;28;20556;-78
2020/12/22 18:53:58;;;;;;;3.20;2.90;;;;;;;12.74;79.27;98010.38;8339497;28;20204;-79
2020/12/22 18:58:01;;;;;;;1.70;1.60;;;;;;;12.67;79.74;98012.47;8338208;28;20251;-79
2020/12/22 19:02:03;;;;;;;2.13;1.43;;;;;;;12.76;79.48;98016.34;8329533;28;20209;-78